createdAt,value
2022-11-29T00:05:13.788Z,0.84
2022-11-29T00:10:16.141Z,0.82
2022-11-29T00:15:18.353Z,0.89
2022-11-29T00:20:20.581Z,0.90
2022-11-29T00:25:22.823Z,0.89
2022-11-29T00:30:25.008Z,0.77
2022-11-29T00:35:27.302Z,0.74
2022-11-29T00:40:29.541Z,0.77
2022-11-29T00:45:31.654Z,0.87
2022-11-29T00:50:33.746Z,0.90
2022-11-29T00:55:35.772Z,0.80
2022-11-29T01:00:37.998Z,0.77
2022-11-29T01:05:40.673Z,0.80
2022-11-29T01:10:42.711Z,0.95
2022-11-29T01:15:44.707Z,0.85
2022-11-29T01:20:47.066Z,1.03
2022-11-29T01:25:57.007Z,0.95
2022-11-29T01:30:59.354Z,0.98
2022-11-29T01:36:02.166Z,0.95
2022-11-29T01:41:12.921Z,0.84
2022-11-29T01:46:15.183Z,0.91
2022-11-29T01:51:17.572Z,0.97
2022-11-29T01:56:19.990Z,0.98
2022-11-29T02:01:22.308Z,0.95
2022-11-29T02:06:25.199Z,0.92
2022-11-29T02:12:02.532Z,1.01
2022-11-29T02:17:22.996Z,1.10
2022-11-29T02:22:47.931Z,1.01
2022-11-29T02:28:24.618Z,1.02
2022-11-29T02:33:45.566Z,0.99
2022-11-29T02:39:02.933Z,0.95
2022-11-29T02:44:20.510Z,0.93
2022-11-29T02:49:31.647Z,0.88
2022-11-29T02:54:33.720Z,0.91
2022-11-29T03:00:04.018Z,0.81
2022-11-29T03:05:39.651Z,0.84
2022-11-29T03:10:50.655Z,0.84
2022-11-29T03:16:12.664Z,0.65
2022-11-29T03:21:48.461Z,0.63
2022-11-29T03:27:02.321Z,0.76
2022-11-29T03:32:38.863Z,0.66
2022-11-29T03:38:19.598Z,0.84
2022-11-29T03:43:39.713Z,0.65
2022-11-29T03:48:53.875Z,0.67
2022-11-29T03:54:02.950Z,0.69
2022-11-29T03:59:14.797Z,0.77
2022-11-29T04:04:42.196Z,0.81
2022-11-29T04:10:12.531Z,0.79
2022-11-29T04:15:48.947Z,0.86
2022-11-29T04:21:16.672Z,0.88
2022-11-29T04:26:30.905Z,0.80
2022-11-29T04:32:05.269Z,0.67
2022-11-29T04:37:32.087Z,0.78
2022-11-29T04:42:52.928Z,0.77
2022-11-29T04:48:39.555Z,0.78
2022-11-29T04:54:07.746Z,0.80
2022-11-29T04:59:38.459Z,0.79
2022-11-29T05:05:08.186Z,0.79
2022-11-29T05:10:25.622Z,0.73
2022-11-29T05:15:45.087Z,0.81
2022-11-29T05:20:53.300Z,0.69
2022-11-29T05:26:25.497Z,0.65
2022-11-29T05:32:01.842Z,0.67
2022-11-29T05:37:19.670Z,0.72
2022-11-29T05:42:49.815Z,0.81
2022-11-29T05:48:14.182Z,0.72
2022-11-29T05:53:42.616Z,0.71
2022-11-29T05:59:02.767Z,0.82
2022-11-29T06:04:14.608Z,0.71
2022-11-29T06:09:32.601Z,0.80
2022-11-29T06:15:03.586Z,0.69
2022-11-29T06:20:13.295Z,0.73
2022-11-29T06:25:23.501Z,0.67
2022-11-29T06:44:48.075Z,1.28
2022-11-29T06:50:33.391Z,0.85
2022-11-29T06:56:20.825Z,0.70
2022-11-29T07:01:46.023Z,0.61
2022-11-29T07:06:48.668Z,0.60
2022-11-29T07:11:51.091Z,0.70
2022-11-29T07:17:07.398Z,0.70
2022-11-29T07:22:22.247Z,0.82
2022-11-29T07:27:37.527Z,0.89
2022-11-29T07:33:00.576Z,0.70
2022-11-29T07:38:02.937Z,0.92
2022-11-29T07:43:23.265Z,1.12
2022-11-29T07:48:27.109Z,1.05
2022-11-29T07:53:30.583Z,1.12
2022-11-29T07:58:32.738Z,1.08
2022-11-29T08:03:35.894Z,1.18
2022-11-29T08:08:43.759Z,1.23
2022-11-29T08:13:46.535Z,1.20
2022-11-29T08:18:49.377Z,1.28
2022-11-29T08:23:52.211Z,1.53
2022-11-29T08:28:54.491Z,1.47
2022-11-29T08:33:56.503Z,1.61
2022-11-29T08:39:04.731Z,1.73
2022-11-29T08:44:09.559Z,2.01
2022-11-29T08:49:15.121Z,2.00
2022-11-29T08:54:17.332Z,2.09
2022-11-29T08:59:19.465Z,2.04
2022-11-29T09:04:21.530Z,2.13
2022-11-29T09:09:23.725Z,2.00
2022-11-29T09:14:25.928Z,1.64
2022-11-29T09:19:28.726Z,1.86
2022-11-29T09:24:31.159Z,2.06
2022-11-29T09:29:33.564Z,1.89
2022-11-29T09:34:35.653Z,1.86
2022-11-29T09:39:38.329Z,1.85
2022-11-29T09:44:46.585Z,1.86
2022-11-29T09:49:55.999Z,1.78
2022-11-29T09:55:43.276Z,2.00
2022-11-29T10:00:56.850Z,1.83
2022-11-29T10:06:07.494Z,1.82
2022-11-29T10:11:20.562Z,1.82
2022-11-29T10:36:06.269Z,2.65
2022-11-29T10:41:15.174Z,2.52
2022-11-29T10:46:31.813Z,2.46
2022-11-29T10:51:35.271Z,2.47
2022-11-29T10:56:38.328Z,2.19
2022-11-29T11:01:44.301Z,2.34
2022-11-29T11:06:51.753Z,2.29
2022-11-29T11:11:58.027Z,2.39
2022-11-29T11:17:22.671Z,2.58
2022-11-29T11:22:26.962Z,2.59
2022-11-29T11:27:35.735Z,2.48
2022-11-29T11:32:37.878Z,2.30
2022-11-29T11:37:40.364Z,2.19
2022-11-29T11:42:43.044Z,2.41
2022-11-29T11:47:58.366Z,2.48
2022-11-29T11:53:17.775Z,2.28
2022-11-29T11:58:23.641Z,2.05
2022-11-29T12:03:50.397Z,2.04
2022-11-29T12:09:25.686Z,2.04
2022-11-29T12:14:36.707Z,2.05
2022-11-29T12:19:49.927Z,1.83
2022-11-29T12:24:59.960Z,1.75
2022-11-29T12:30:02.412Z,1.94
2022-11-29T12:35:04.500Z,1.96
2022-11-29T12:40:15.607Z,1.71
2022-11-29T12:45:48.648Z,1.82
2022-11-29T12:51:09.187Z,1.88
2022-11-29T12:56:22.324Z,1.75
2022-11-29T13:01:33.744Z,1.86
2022-11-29T13:06:56.623Z,1.68
2022-11-29T13:12:24.098Z,1.65
2022-11-29T13:18:01.176Z,1.61
2022-11-29T13:23:09.584Z,1.60
2022-11-29T13:28:32.613Z,1.36
2022-11-29T13:33:53.292Z,1.56
2022-11-29T13:39:23.403Z,1.53
2022-11-29T13:44:45.553Z,1.74
2022-11-29T13:49:56.127Z,1.65
2022-11-29T13:55:34.462Z,1.43
2022-11-29T14:00:42.690Z,1.27
2022-11-29T14:05:47.327Z,1.26
2022-11-29T14:10:51.390Z,1.27
2022-11-29T14:16:00.797Z,1.20
2022-11-29T14:21:04.818Z,1.19
2022-11-29T14:26:08.227Z,1.32
2022-11-29T14:31:10.752Z,1.25
2022-11-29T14:36:19.018Z,1.11
2022-11-29T14:41:26.971Z,1.30
2022-11-29T14:46:32.154Z,1.27
2022-11-29T14:51:35.368Z,1.33
2022-11-29T14:56:39.460Z,1.37
2022-11-29T15:01:45.808Z,1.39
2022-11-29T15:06:53.053Z,1.29
2022-11-29T15:12:03.473Z,1.21
2022-11-29T15:17:42.261Z,1.28
2022-11-29T15:22:55.144Z,1.01
2022-11-29T15:28:02.503Z,1.05
2022-11-29T15:33:18.815Z,0.94
2022-11-29T15:38:22.878Z,1.27
2022-11-29T15:43:31.983Z,1.28
2022-11-29T15:48:34.478Z,1.38
2022-11-29T15:54:11.306Z,1.29
2022-11-29T15:59:21.483Z,1.28
2022-11-29T16:04:25.523Z,1.05
2022-11-29T16:09:43.539Z,1.13
2022-11-29T16:14:54.075Z,1.15
2022-11-29T16:20:24.990Z,1.09
2022-11-29T16:25:27.644Z,1.19
2022-11-29T16:30:31.593Z,1.10
2022-11-29T16:35:34.960Z,1.25
2022-11-29T16:40:37.376Z,1.08
2022-11-29T16:45:41.841Z,1.26
2022-11-29T16:50:44.083Z,1.37
2022-11-29T16:55:46.463Z,1.23
2022-11-29T17:00:48.768Z,1.23
2022-11-29T17:05:50.867Z,1.24
2022-11-29T17:10:52.867Z,1.31
2022-11-29T17:15:55.065Z,1.33
2022-11-29T17:20:57.893Z,1.21
2022-11-29T17:26:01.031Z,1.22
2022-11-29T17:31:17.621Z,1.27
2022-11-29T17:36:21.367Z,1.34
2022-11-29T17:41:26.246Z,1.24
2022-11-29T17:46:34.569Z,1.23
2022-11-29T17:51:54.444Z,1.22
2022-11-29T17:56:57.155Z,1.24
2022-11-29T18:01:59.418Z,1.22
2022-11-29T18:07:01.833Z,1.30
2022-11-29T18:12:03.951Z,1.32
2022-11-29T18:17:05.992Z,1.35
2022-11-29T18:22:08.715Z,1.52
2022-11-29T18:27:10.957Z,1.27
2022-11-29T18:32:13.092Z,1.10
2022-11-29T18:37:23.366Z,1.07
2022-11-29T18:42:36.067Z,1.39
2022-11-29T18:47:38.109Z,1.40
2022-11-29T18:52:40.906Z,1.40
2022-11-29T18:57:44.301Z,1.37
2022-11-29T19:02:46.454Z,1.44
2022-11-29T19:07:48.622Z,1.40
2022-11-29T19:12:50.878Z,1.44
2022-11-29T19:17:53.305Z,1.20
2022-11-29T19:23:00.324Z,1.25
2022-11-29T19:28:03.010Z,1.29
2022-11-29T19:33:05.137Z,1.23
2022-11-29T19:38:07.250Z,1.34
2022-11-29T19:43:09.503Z,1.24
2022-11-29T19:48:11.682Z,1.43
2022-11-29T19:53:16.305Z,1.37
2022-11-29T19:58:18.423Z,1.33
2022-11-29T20:03:21.162Z,1.52
2022-11-29T20:08:23.482Z,1.46
2022-11-29T20:13:25.974Z,1.57
2022-11-29T20:18:31.949Z,1.28
2022-11-29T20:23:34.976Z,1.45
2022-11-29T20:28:37.600Z,1.57
2022-11-29T20:33:42.464Z,1.43
2022-11-29T20:38:55.222Z,1.33
2022-11-29T20:44:01.874Z,1.47
2022-11-29T20:49:06.673Z,1.62
2022-11-29T20:54:11.952Z,1.59
2022-11-29T20:59:14.337Z,1.46
2022-11-29T21:04:22.925Z,1.39
2022-11-29T21:09:25.712Z,1.46
2022-11-29T21:14:28.275Z,1.37
2022-11-29T21:19:30.978Z,1.38
2022-11-29T21:24:55.140Z,1.46
2022-11-29T21:29:57.768Z,1.59
2022-11-29T21:34:59.985Z,1.46
2022-11-29T21:40:02.148Z,1.40
2022-11-29T21:45:09.302Z,1.45
2022-11-29T21:50:17.189Z,1.36
2022-11-29T21:55:19.459Z,1.24
2022-11-29T22:00:21.733Z,1.36
2022-11-29T22:05:23.817Z,1.40
2022-11-29T22:10:26.207Z,1.36
2022-11-29T22:15:33.561Z,1.36
2022-11-29T22:20:35.666Z,1.18
2022-11-29T22:25:37.697Z,1.34
2022-11-29T22:30:39.821Z,1.44
2022-11-29T22:35:45.087Z,1.49
2022-11-29T22:40:47.334Z,1.54
2022-11-29T22:45:49.579Z,1.39
2022-11-29T22:50:51.713Z,1.38
2022-11-29T22:55:58.875Z,1.38
2022-11-29T23:01:09.754Z,1.56
2022-11-29T23:06:14.412Z,1.44
2022-11-29T23:11:19.907Z,1.47
2022-11-29T23:16:28.104Z,1.55
2022-11-29T23:21:36.268Z,1.57
2022-11-29T23:26:41.468Z,1.49
2022-11-29T23:31:44.295Z,1.47
2022-11-29T23:36:52.425Z,1.51
2022-11-29T23:41:55.046Z,1.50
2022-11-29T23:46:57.283Z,1.35
2022-11-29T23:52:00.741Z,1.48
2022-11-29T23:57:02.867Z,1.45
